sensor_id;sensor_type;location;lat;lon;timestamp;P1;durP1;ratioP1;P2;durP2;ratioP2
74233;SDS011;62591;55.764;37.718;2023-03-01T00:01:47;2.88;;;1.00;;
74233;SDS011;62591;55.764;37.718;2023-03-01T00:04:16;3.03;;;0.90;;
74233;SDS011;62591;55.764;37.718;2023-03-01T00:06:44;3.33;;;0.63;;
74233;SDS011;62591;55.764;37.718;2023-03-01T00:09:13;3.55;;;0.95;;
74233;SDS011;62591;55.764;37.718;2023-03-01T00:11:42;3.92;;;0.88;;
74233;SDS011;62591;55.764;37.718;2023-03-01T00:14:12;5.18;;;0.77;;
74233;SDS011;62591;55.764;37.718;2023-03-01T00:16:54;2.97;;;0.73;;
74233;SDS011;62591;55.764;37.718;2023-03-01T00:19:23;0.80;;;0.35;;
74233;SDS011;62591;55.764;37.718;2023-03-01T00:21:51;1.73;;;0.65;;
74233;SDS011;62591;55.764;37.718;2023-03-01T00:24:20;2.90;;;0.70;;
74233;SDS011;62591;55.764;37.718;2023-03-01T00:26:52;3.25;;;0.75;;
74233;SDS011;62591;55.764;37.718;2023-03-01T00:29:24;3.35;;;0.90;;
74233;SDS011;62591;55.764;37.718;2023-03-01T00:31:53;1.75;;;0.75;;
74233;SDS011;62591;55.764;37.718;2023-03-01T00:34:21;1.77;;;0.60;;
74233;SDS011;62591;55.764;37.718;2023-03-01T00:36:50;2.78;;;0.60;;
74233;SDS011;62591;55.764;37.718;2023-03-01T00:39:18;2.20;;;0.60;;
74233;SDS011;62591;55.764;37.718;2023-03-01T00:41:47;1.50;;;0.50;;
74233;SDS011;62591;55.764;37.718;2023-03-01T00:44:16;1.38;;;0.68;;
74233;SDS011;62591;55.764;37.718;2023-03-01T00:46:46;3.50;;;0.70;;
74233;SDS011;62591;55.764;37.718;2023-03-01T00:49:14;1.83;;;0.60;;
74233;SDS011;62591;55.764;37.718;2023-03-01T00:51:43;4.07;;;0.80;;
74233;SDS011;62591;55.764;37.718;2023-03-01T00:54:11;2.10;;;0.80;;
74233;SDS011;62591;55.764;37.718;2023-03-01T00:56:40;1.85;;;0.60;;
74233;SDS011;62591;55.764;37.718;2023-03-01T00:59:08;2.45;;;0.60;;
74233;SDS011;62591;55.764;37.718;2023-03-01T01:01:38;2.85;;;0.65;;
74233;SDS011;62591;55.764;37.718;2023-03-01T01:04:09;2.20;;;0.70;;
74233;SDS011;62591;55.764;37.718;2023-03-01T01:06:40;1.98;;;0.52;;
74233;SDS011;62591;55.764;37.718;2023-03-01T01:09:10;1.77;;;0.70;;
74233;SDS011;62591;55.764;37.718;2023-03-01T01:11:46;2.08;;;0.52;;
74233;SDS011;62591;55.764;37.718;2023-03-01T01:14:16;1.25;;;0.60;;
74233;SDS011;62591;55.764;37.718;2023-03-01T01:16:47;3.25;;;0.60;;
74233;SDS011;62591;55.764;37.718;2023-03-01T01:19:17;1.42;;;0.45;;
74233;SDS011;62591;55.764;37.718;2023-03-01T01:21:46;2.45;;;0.70;;
74233;SDS011;62591;55.764;37.718;2023-03-01T01:24:15;3.33;;;0.63;;
74233;SDS011;62591;55.764;37.718;2023-03-01T01:26:44;3.78;;;0.80;;
74233;SDS011;62591;55.764;37.718;2023-03-01T01:29:13;4.43;;;0.90;;
74233;SDS011;62591;55.764;37.718;2023-03-01T01:31:42;2.08;;;0.70;;
74233;SDS011;62591;55.764;37.718;2023-03-01T01:34:13;2.40;;;0.70;;
74233;SDS011;62591;55.764;37.718;2023-03-01T01:36:47;1.15;;;0.47;;
74233;SDS011;62591;55.764;37.718;2023-03-01T01:39:17;3.47;;;0.70;;
74233;SDS011;62591;55.764;37.718;2023-03-01T01:41:45;2.13;;;0.60;;
74233;SDS011;62591;55.764;37.718;2023-03-01T01:44:15;1.88;;;0.63;;
74233;SDS011;62591;55.764;37.718;2023-03-01T01:46:47;2.78;;;0.85;;
74233;SDS011;62591;55.764;37.718;2023-03-01T01:51:57;2.50;;;0.73;;
74233;SDS011;62591;55.764;37.718;2023-03-01T01:54:31;4.80;;;0.90;;
74233;SDS011;62591;55.764;37.718;2023-03-01T01:57:07;3.63;;;0.90;;
74233;SDS011;62591;55.764;37.718;2023-03-01T01:59:40;3.25;;;1.15;;
74233;SDS011;62591;55.764;37.718;2023-03-01T02:02:13;2.72;;;0.70;;
74233;SDS011;62591;55.764;37.718;2023-03-01T02:04:42;3.38;;;0.93;;
74233;SDS011;62591;55.764;37.718;2023-03-01T02:07:14;3.33;;;0.55;;
74233;SDS011;62591;55.764;37.718;2023-03-01T02:09:45;3.45;;;1.00;;
74233;SDS011;62591;55.764;37.718;2023-03-01T02:12:16;3.35;;;0.75;;
74233;SDS011;62591;55.764;37.718;2023-03-01T02:14:47;3.15;;;0.63;;
74233;SDS011;62591;55.764;37.718;2023-03-01T02:17:16;3.20;;;0.75;;
74233;SDS011;62591;55.764;37.718;2023-03-01T02:19:49;3.63;;;0.90;;
74233;SDS011;62591;55.764;37.718;2023-03-01T02:22:31;3.28;;;0.82;;
74233;SDS011;62591;55.764;37.718;2023-03-01T02:25:03;3.08;;;0.93;;
74233;SDS011;62591;55.764;37.718;2023-03-01T02:27:44;2.88;;;0.80;;
74233;SDS011;62591;55.764;37.718;2023-03-01T02:30:21;1.80;;;0.63;;
74233;SDS011;62591;55.764;37.718;2023-03-01T02:32:52;2.08;;;0.80;;
74233;SDS011;62591;55.764;37.718;2023-03-01T02:35:30;4.93;;;1.23;;
74233;SDS011;62591;55.764;37.718;2023-03-01T02:38:02;2.35;;;0.63;;
74233;SDS011;62591;55.764;37.718;2023-03-01T02:40:34;2.80;;;1.05;;
74233;SDS011;62591;55.764;37.718;2023-03-01T02:43:06;2.90;;;0.82;;
74233;SDS011;62591;55.764;37.718;2023-03-01T02:45:47;4.95;;;0.90;;
74233;SDS011;62591;55.764;37.718;2023-03-01T02:48:16;9.63;;;1.23;;
74233;SDS011;62591;55.764;37.718;2023-03-01T02:50:52;3.92;;;1.00;;
74233;SDS011;62591;55.764;37.718;2023-03-01T02:53:32;3.70;;;0.90;;
74233;SDS011;62591;55.764;37.718;2023-03-01T02:56:09;2.35;;;0.70;;
74233;SDS011;62591;55.764;37.718;2023-03-01T02:58:40;2.95;;;0.80;;
74233;SDS011;62591;55.764;37.718;2023-03-01T03:01:14;2.97;;;0.60;;
74233;SDS011;62591;55.764;37.718;2023-03-01T03:03:43;5.35;;;1.00;;
74233;SDS011;62591;55.764;37.718;2023-03-01T03:06:12;2.50;;;0.82;;
74233;SDS011;62591;55.764;37.718;2023-03-01T03:08:41;3.55;;;0.70;;
74233;SDS011;62591;55.764;37.718;2023-03-01T03:11:10;3.28;;;1.00;;
74233;SDS011;62591;55.764;37.718;2023-03-01T03:13:39;3.15;;;1.13;;
74233;SDS011;62591;55.764;37.718;2023-03-01T03:16:17;4.68;;;0.75;;
74233;SDS011;62591;55.764;37.718;2023-03-01T03:18:46;3.85;;;0.70;;
74233;SDS011;62591;55.764;37.718;2023-03-01T03:21:14;2.83;;;1.13;;
74233;SDS011;62591;55.764;37.718;2023-03-01T03:23:44;2.90;;;1.05;;
74233;SDS011;62591;55.764;37.718;2023-03-01T03:26:12;4.53;;;1.10;;
74233;SDS011;62591;55.764;37.718;2023-03-01T03:28:41;3.03;;;0.90;;
74233;SDS011;62591;55.764;37.718;2023-03-01T03:31:10;3.83;;;0.93;;
74233;SDS011;62591;55.764;37.718;2023-03-01T03:33:40;4.03;;;1.30;;
74233;SDS011;62591;55.764;37.718;2023-03-01T03:36:08;5.85;;;1.20;;
74233;SDS011;62591;55.764;37.718;2023-03-01T03:38:39;5.22;;;1.48;;
74233;SDS011;62591;55.764;37.718;2023-03-01T03:41:08;1.55;;;0.88;;
74233;SDS011;62591;55.764;37.718;2023-03-01T03:43:37;3.55;;;1.30;;
74233;SDS011;62591;55.764;37.718;2023-03-01T03:46:07;3.75;;;0.82;;
74233;SDS011;62591;55.764;37.718;2023-03-01T03:48:37;2.50;;;0.82;;
74233;SDS011;62591;55.764;37.718;2023-03-01T03:51:09;2.95;;;1.13;;
74233;SDS011;62591;55.764;37.718;2023-03-01T03:53:38;8.00;;;1.40;;
74233;SDS011;62591;55.764;37.718;2023-03-01T03:56:07;3.72;;;1.30;;
74233;SDS011;62591;55.764;37.718;2023-03-01T03:58:36;3.10;;;0.90;;
74233;SDS011;62591;55.764;37.718;2023-03-01T04:01:05;3.15;;;1.00;;
74233;SDS011;62591;55.764;37.718;2023-03-01T04:03:33;2.67;;;0.90;;
74233;SDS011;62591;55.764;37.718;2023-03-01T04:06:03;7.80;;;1.60;;
74233;SDS011;62591;55.764;37.718;2023-03-01T04:08:34;6.60;;;1.70;;
74233;SDS011;62591;55.764;37.718;2023-03-01T04:11:03;2.35;;;1.33;;
74233;SDS011;62591;55.764;37.718;2023-03-01T04:13:46;8.80;;;1.92;;
74233;SDS011;62591;55.764;37.718;2023-03-01T04:16:15;4.65;;;1.23;;
74233;SDS011;62591;55.764;37.718;2023-03-01T04:18:44;2.67;;;1.08;;
74233;SDS011;62591;55.764;37.718;2023-03-01T04:21:14;3.45;;;1.40;;
74233;SDS011;62591;55.764;37.718;2023-03-01T04:23:44;3.95;;;1.38;;
74233;SDS011;62591;55.764;37.718;2023-03-01T04:26:13;4.50;;;1.25;;
74233;SDS011;62591;55.764;37.718;2023-03-01T04:28:42;2.78;;;1.15;;
74233;SDS011;62591;55.764;37.718;2023-03-01T04:31:12;3.30;;;1.48;;
74233;SDS011;62591;55.764;37.718;2023-03-01T04:33:44;12.35;;;4.55;;
74233;SDS011;62591;55.764;37.718;2023-03-01T04:36:14;3.80;;;1.40;;
74233;SDS011;62591;55.764;37.718;2023-03-01T04:38:45;5.45;;;1.40;;
74233;SDS011;62591;55.764;37.718;2023-03-01T04:41:16;5.28;;;1.60;;
74233;SDS011;62591;55.764;37.718;2023-03-01T04:43:47;6.65;;;1.48;;
74233;SDS011;62591;55.764;37.718;2023-03-01T04:46:17;6.63;;;1.30;;
74233;SDS011;62591;55.764;37.718;2023-03-01T04:48:47;3.90;;;1.42;;
74233;SDS011;62591;55.764;37.718;2023-03-01T04:51:16;4.28;;;1.40;;
74233;SDS011;62591;55.764;37.718;2023-03-01T04:53:46;6.53;;;1.65;;
74233;SDS011;62591;55.764;37.718;2023-03-01T04:56:15;3.25;;;1.25;;
74233;SDS011;62591;55.764;37.718;2023-03-01T04:58:45;4.88;;;1.40;;
74233;SDS011;62591;55.764;37.718;2023-03-01T05:01:15;3.85;;;1.27;;
74233;SDS011;62591;55.764;37.718;2023-03-01T05:03:46;3.47;;;1.50;;
74233;SDS011;62591;55.764;37.718;2023-03-01T05:06:16;5.28;;;2.00;;
74233;SDS011;62591;55.764;37.718;2023-03-01T05:08:47;7.43;;;1.88;;
74233;SDS011;62591;55.764;37.718;2023-03-01T05:11:15;3.97;;;1.60;;
74233;SDS011;62591;55.764;37.718;2023-03-01T05:13:44;4.53;;;1.63;;
74233;SDS011;62591;55.764;37.718;2023-03-01T05:16:13;6.53;;;1.83;;
74233;SDS011;62591;55.764;37.718;2023-03-01T05:18:43;7.22;;;2.13;;
74233;SDS011;62591;55.764;37.718;2023-03-01T05:21:13;6.13;;;1.95;;
74233;SDS011;62591;55.764;37.718;2023-03-01T05:23:43;6.03;;;2.00;;
74233;SDS011;62591;55.764;37.718;2023-03-01T05:26:16;7.97;;;2.53;;
74233;SDS011;62591;55.764;37.718;2023-03-01T05:28:54;7.22;;;2.75;;
74233;SDS011;62591;55.764;37.718;2023-03-01T05:31:26;8.82;;;2.60;;
74233;SDS011;62591;55.764;37.718;2023-03-01T05:33:54;5.47;;;2.28;;
74233;SDS011;62591;55.764;37.718;2023-03-01T05:36:23;5.43;;;2.30;;
74233;SDS011;62591;55.764;37.718;2023-03-01T05:38:51;5.10;;;2.30;;
74233;SDS011;62591;55.764;37.718;2023-03-01T05:41:21;4.78;;;2.30;;
74233;SDS011;62591;55.764;37.718;2023-03-01T05:43:50;6.32;;;2.08;;
74233;SDS011;62591;55.764;37.718;2023-03-01T05:46:19;5.78;;;1.85;;
74233;SDS011;62591;55.764;37.718;2023-03-01T05:48:47;6.65;;;1.90;;
74233;SDS011;62591;55.764;37.718;2023-03-01T05:51:16;5.45;;;1.77;;
74233;SDS011;62591;55.764;37.718;2023-03-01T05:53:45;9.00;;;2.60;;
74233;SDS011;62591;55.764;37.718;2023-03-01T05:56:13;9.32;;;2.53;;
74233;SDS011;62591;55.764;37.718;2023-03-01T05:58:43;9.20;;;3.50;;
74233;SDS011;62591;55.764;37.718;2023-03-01T06:01:12;4.97;;;1.92;;
74233;SDS011;62591;55.764;37.718;2023-03-01T06:03:41;10.05;;;2.70;;
74233;SDS011;62591;55.764;37.718;2023-03-01T06:06:09;6.90;;;2.20;;
74233;SDS011;62591;55.764;37.718;2023-03-01T06:08:38;7.18;;;2.40;;
74233;SDS011;62591;55.764;37.718;2023-03-01T06:11:06;5.10;;;1.70;;
74233;SDS011;62591;55.764;37.718;2023-03-01T06:13:35;5.93;;;2.40;;
74233;SDS011;62591;55.764;37.718;2023-03-01T06:16:06;6.15;;;2.20;;
74233;SDS011;62591;55.764;37.718;2023-03-01T06:18:35;7.45;;;2.33;;
74233;SDS011;62591;55.764;37.718;2023-03-01T06:21:05;8.85;;;2.47;;
74233;SDS011;62591;55.764;37.718;2023-03-01T06:23:34;7.05;;;2.58;;
74233;SDS011;62591;55.764;37.718;2023-03-01T06:26:05;5.93;;;2.53;;
74233;SDS011;62591;55.764;37.718;2023-03-01T06:28:34;6.32;;;2.25;;
74233;SDS011;62591;55.764;37.718;2023-03-01T06:31:03;4.63;;;2.03;;
74233;SDS011;62591;55.764;37.718;2023-03-01T06:33:37;6.43;;;2.53;;
74233;SDS011;62591;55.764;37.718;2023-03-01T06:36:06;6.65;;;2.13;;
74233;SDS011;62591;55.764;37.718;2023-03-01T06:38:36;5.15;;;2.28;;
74233;SDS011;62591;55.764;37.718;2023-03-01T06:41:04;6.57;;;2.65;;
74233;SDS011;62591;55.764;37.718;2023-03-01T06:43:33;9.45;;;2.80;;
74233;SDS011;62591;55.764;37.718;2023-03-01T06:46:03;8.57;;;2.40;;
74233;SDS011;62591;55.764;37.718;2023-03-01T06:48:33;5.43;;;1.98;;
74233;SDS011;62591;55.764;37.718;2023-03-01T06:51:03;7.85;;;2.65;;
74233;SDS011;62591;55.764;37.718;2023-03-01T06:53:32;8.63;;;2.67;;
74233;SDS011;62591;55.764;37.718;2023-03-01T06:56:00;8.50;;;2.70;;
74233;SDS011;62591;55.764;37.718;2023-03-01T06:58:29;7.18;;;3.00;;
74233;SDS011;62591;55.764;37.718;2023-03-01T07:00:57;7.95;;;2.60;;
74233;SDS011;62591;55.764;37.718;2023-03-01T07:03:26;4.72;;;1.90;;
74233;SDS011;62591;55.764;37.718;2023-03-01T07:06:00;9.93;;;2.55;;
74233;SDS011;62591;55.764;37.718;2023-03-01T07:08:30;7.03;;;2.53;;
74233;SDS011;62591;55.764;37.718;2023-03-01T07:10:59;3.90;;;1.27;;
74233;SDS011;62591;55.764;37.718;2023-03-01T07:13:29;7.65;;;1.98;;
74233;SDS011;62591;55.764;37.718;2023-03-01T07:15:57;6.03;;;2.28;;
74233;SDS011;62591;55.764;37.718;2023-03-01T07:18:26;7.53;;;1.50;;
74233;SDS011;62591;55.764;37.718;2023-03-01T07:20:54;6.45;;;1.80;;
74233;SDS011;62591;55.764;37.718;2023-03-01T07:23:23;3.78;;;1.20;;
74233;SDS011;62591;55.764;37.718;2023-03-01T07:25:53;7.82;;;2.65;;
74233;SDS011;62591;55.764;37.718;2023-03-01T07:28:22;4.68;;;1.52;;
74233;SDS011;62591;55.764;37.718;2023-03-01T07:30:51;5.25;;;1.90;;
74233;SDS011;62591;55.764;37.718;2023-03-01T07:33:20;4.05;;;1.60;;
74233;SDS011;62591;55.764;37.718;2023-03-01T07:35:48;5.45;;;1.30;;
74233;SDS011;62591;55.764;37.718;2023-03-01T07:38:25;4.10;;;1.38;;
74233;SDS011;62591;55.764;37.718;2023-03-01T07:40:57;3.90;;;1.38;;
74233;SDS011;62591;55.764;37.718;2023-03-01T07:43:27;4.88;;;1.30;;
74233;SDS011;62591;55.764;37.718;2023-03-01T07:45:57;2.58;;;1.17;;
74233;SDS011;62591;55.764;37.718;2023-03-01T07:48:26;2.40;;;1.13;;
74233;SDS011;62591;55.764;37.718;2023-03-01T07:50:57;4.13;;;1.70;;
74233;SDS011;62591;55.764;37.718;2023-03-01T07:53:26;5.78;;;1.30;;
74233;SDS011;62591;55.764;37.718;2023-03-01T07:56:03;3.85;;;1.25;;
74233;SDS011;62591;55.764;37.718;2023-03-01T07:58:33;6.20;;;2.55;;
74233;SDS011;62591;55.764;37.718;2023-03-01T08:01:02;15.02;;;4.63;;
74233;SDS011;62591;55.764;37.718;2023-03-01T08:03:32;9.40;;;3.67;;
74233;SDS011;62591;55.764;37.718;2023-03-01T08:06:01;8.80;;;3.15;;
74233;SDS011;62591;55.764;37.718;2023-03-01T08:08:30;8.45;;;3.30;;
74233;SDS011;62591;55.764;37.718;2023-03-01T08:11:00;6.40;;;2.85;;
74233;SDS011;62591;55.764;37.718;2023-03-01T08:13:31;7.25;;;2.50;;
74233;SDS011;62591;55.764;37.718;2023-03-01T08:16:00;9.57;;;3.13;;
74233;SDS011;62591;55.764;37.718;2023-03-01T08:18:30;9.82;;;2.85;;
74233;SDS011;62591;55.764;37.718;2023-03-01T08:21:01;7.93;;;2.42;;
74233;SDS011;62591;55.764;37.718;2023-03-01T08:23:30;9.43;;;3.13;;
74233;SDS011;62591;55.764;37.718;2023-03-01T08:26:03;6.20;;;2.28;;
74233;SDS011;62591;55.764;37.718;2023-03-01T08:28:34;8.75;;;2.53;;
74233;SDS011;62591;55.764;37.718;2023-03-01T08:31:03;10.68;;;2.47;;
74233;SDS011;62591;55.764;37.718;2023-03-01T08:33:40;5.35;;;1.85;;
74233;SDS011;62591;55.764;37.718;2023-03-01T08:36:09;6.82;;;2.22;;
74233;SDS011;62591;55.764;37.718;2023-03-01T08:38:38;6.55;;;1.92;;
74233;SDS011;62591;55.764;37.718;2023-03-01T08:41:06;5.93;;;2.25;;
74233;SDS011;62591;55.764;37.718;2023-03-01T08:43:37;12.57;;;2.78;;
74233;SDS011;62591;55.764;37.718;2023-03-01T08:46:05;9.80;;;2.70;;
74233;SDS011;62591;55.764;37.718;2023-03-01T08:48:35;4.53;;;1.67;;
74233;SDS011;62591;55.764;37.718;2023-03-01T08:51:08;4.13;;;1.35;;
74233;SDS011;62591;55.764;37.718;2023-03-01T08:53:37;3.83;;;1.50;;
74233;SDS011;62591;55.764;37.718;2023-03-01T08:56:06;5.07;;;1.65;;
74233;SDS011;62591;55.764;37.718;2023-03-01T08:58:36;4.70;;;2.00;;
74233;SDS011;62591;55.764;37.718;2023-03-01T09:01:07;9.30;;;2.40;;
74233;SDS011;62591;55.764;37.718;2023-03-01T09:03:36;5.80;;;1.83;;
74233;SDS011;62591;55.764;37.718;2023-03-01T09:06:06;9.20;;;2.08;;
74233;SDS011;62591;55.764;37.718;2023-03-01T09:08:35;4.43;;;1.60;;
74233;SDS011;62591;55.764;37.718;2023-03-01T09:11:06;5.35;;;2.00;;
74233;SDS011;62591;55.764;37.718;2023-03-01T09:13:38;6.93;;;2.28;;
74233;SDS011;62591;55.764;37.718;2023-03-01T09:16:10;8.63;;;2.33;;
74233;SDS011;62591;55.764;37.718;2023-03-01T09:18:40;5.43;;;1.70;;
74233;SDS011;62591;55.764;37.718;2023-03-01T09:21:10;5.68;;;1.70;;
74233;SDS011;62591;55.764;37.718;2023-03-01T09:23:40;3.90;;;1.50;;
74233;SDS011;62591;55.764;37.718;2023-03-01T09:26:11;5.40;;;1.75;;
74233;SDS011;62591;55.764;37.718;2023-03-01T09:28:44;4.82;;;1.58;;
74233;SDS011;62591;55.764;37.718;2023-03-01T09:31:13;4.10;;;1.10;;
74233;SDS011;62591;55.764;37.718;2023-03-01T09:33:45;3.03;;;1.13;;
74233;SDS011;62591;55.764;37.718;2023-03-01T09:36:15;9.73;;;2.10;;
74233;SDS011;62591;55.764;37.718;2023-03-01T09:38:44;8.18;;;2.22;;
74233;SDS011;62591;55.764;37.718;2023-03-01T09:41:25;5.25;;;1.95;;
74233;SDS011;62591;55.764;37.718;2023-03-01T09:44:08;5.18;;;1.95;;
74233;SDS011;62591;55.764;37.718;2023-03-01T09:46:44;7.40;;;1.80;;
74233;SDS011;62591;55.764;37.718;2023-03-01T09:49:14;10.85;;;2.30;;
74233;SDS011;62591;55.764;37.718;2023-03-01T09:51:50;6.50;;;2.17;;
74233;SDS011;62591;55.764;37.718;2023-03-01T09:54:23;3.83;;;1.42;;
74233;SDS011;62591;55.764;37.718;2023-03-01T09:57:05;4.07;;;1.65;;
74233;SDS011;62591;55.764;37.718;2023-03-01T09:59:55;6.88;;;1.95;;
74233;SDS011;62591;55.764;37.718;2023-03-01T10:02:33;4.57;;;1.27;;
74233;SDS011;62591;55.764;37.718;2023-03-01T10:05:13;5.60;;;1.58;;
74233;SDS011;62591;55.764;37.718;2023-03-01T10:07:52;5.43;;;1.52;;
74233;SDS011;62591;55.764;37.718;2023-03-01T10:10:31;4.25;;;1.90;;
74233;SDS011;62591;55.764;37.718;2023-03-01T10:13:04;3.40;;;1.90;;
74233;SDS011;62591;55.764;37.718;2023-03-01T10:15:43;4.78;;;1.58;;
74233;SDS011;62591;55.764;37.718;2023-03-01T10:20:46;3.90;;;1.30;;
74233;SDS011;62591;55.764;37.718;2023-03-01T10:23:21;4.43;;;1.40;;
74233;SDS011;62591;55.764;37.718;2023-03-01T10:25:54;3.22;;;1.27;;
74233;SDS011;62591;55.764;37.718;2023-03-01T10:28:37;2.42;;;1.38;;
74233;SDS011;62591;55.764;37.718;2023-03-01T10:31:14;3.63;;;1.33;;
74233;SDS011;62591;55.764;37.718;2023-03-01T10:33:49;5.47;;;1.70;;
74233;SDS011;62591;55.764;37.718;2023-03-01T10:36:21;5.20;;;1.65;;
74233;SDS011;62591;55.764;37.718;2023-03-01T10:38:51;7.05;;;1.50;;
74233;SDS011;62591;55.764;37.718;2023-03-01T10:41:21;5.45;;;1.10;;
74233;SDS011;62591;55.764;37.718;2023-03-01T10:43:52;5.22;;;2.17;;
74233;SDS011;62591;55.764;37.718;2023-03-01T10:46:25;9.95;;;3.92;;
74233;SDS011;62591;55.764;37.718;2023-03-01T10:49:05;7.53;;;1.60;;
74233;SDS011;62591;55.764;37.718;2023-03-01T10:51:38;4.57;;;1.77;;
74233;SDS011;62591;55.764;37.718;2023-03-01T10:54:15;4.93;;;1.50;;
74233;SDS011;62591;55.764;37.718;2023-03-01T10:56:47;5.28;;;1.50;;
74233;SDS011;62591;55.764;37.718;2023-03-01T10:59:22;3.60;;;1.38;;
74233;SDS011;62591;55.764;37.718;2023-03-01T11:02:12;5.28;;;1.60;;
74233;SDS011;62591;55.764;37.718;2023-03-01T11:04:57;2.42;;;1.00;;
74233;SDS011;62591;55.764;37.718;2023-03-01T11:07:30;3.15;;;1.33;;
74233;SDS011;62591;55.764;37.718;2023-03-01T11:09:58;3.70;;;1.48;;
74233;SDS011;62591;55.764;37.718;2023-03-01T11:12:28;2.40;;;0.80;;
74233;SDS011;62591;55.764;37.718;2023-03-01T11:15:00;3.40;;;1.30;;
74233;SDS011;62591;55.764;37.718;2023-03-01T11:17:30;4.88;;;1.25;;
74233;SDS011;62591;55.764;37.718;2023-03-01T11:20:23;3.30;;;1.20;;
74233;SDS011;62591;55.764;37.718;2023-03-01T11:22:56;4.75;;;1.55;;
74233;SDS011;62591;55.764;37.718;2023-03-01T11:25:30;5.57;;;1.50;;
74233;SDS011;62591;55.764;37.718;2023-03-01T11:30:34;5.22;;;1.73;;
74233;SDS011;62591;55.764;37.718;2023-03-01T11:33:13;3.90;;;1.58;;
74233;SDS011;62591;55.764;37.718;2023-03-01T11:35:49;7.55;;;1.85;;
74233;SDS011;62591;55.764;37.718;2023-03-01T11:38:24;2.85;;;1.30;;
74233;SDS011;62591;55.764;37.718;2023-03-01T11:40:55;2.83;;;1.08;;
74233;SDS011;62591;55.764;37.718;2023-03-01T11:43:33;2.67;;;1.02;;
74233;SDS011;62591;55.764;37.718;2023-03-01T11:52:13;5.93;;;1.33;;
74233;SDS011;62591;55.764;37.718;2023-03-01T11:57:33;2.85;;;1.20;;
74233;SDS011;62591;55.764;37.718;2023-03-01T12:00:14;4.72;;;1.35;;
74233;SDS011;62591;55.764;37.718;2023-03-01T12:09:20;3.30;;;1.30;;
74233;SDS011;62591;55.764;37.718;2023-03-01T12:12:07;2.38;;;0.90;;
74233;SDS011;62591;55.764;37.718;2023-03-01T12:15:00;6.57;;;1.50;;
74233;SDS011;62591;55.764;37.718;2023-03-01T12:18:13;5.80;;;1.38;;
74233;SDS011;62591;55.764;37.718;2023-03-01T12:21:02;5.10;;;1.50;;
74233;SDS011;62591;55.764;37.718;2023-03-01T12:26:43;3.95;;;1.77;;
74233;SDS011;62591;55.764;37.718;2023-03-01T12:29:25;2.35;;;0.90;;
74233;SDS011;62591;55.764;37.718;2023-03-01T12:32:09;3.17;;;0.98;;
74233;SDS011;62591;55.764;37.718;2023-03-01T12:35:01;2.67;;;0.82;;
74233;SDS011;62591;55.764;37.718;2023-03-01T12:37:41;2.20;;;1.02;;
74233;SDS011;62591;55.764;37.718;2023-03-01T12:40:29;4.53;;;1.52;;
74233;SDS011;62591;55.764;37.718;2023-03-01T12:43:13;8.63;;;1.20;;
74233;SDS011;62591;55.764;37.718;2023-03-01T12:45:54;6.55;;;1.10;;
74233;SDS011;62591;55.764;37.718;2023-03-01T12:48:41;4.57;;;1.60;;
74233;SDS011;62591;55.764;37.718;2023-03-01T12:51:16;4.65;;;1.30;;
74233;SDS011;62591;55.764;37.718;2023-03-01T12:53:52;3.90;;;1.67;;
74233;SDS011;62591;55.764;37.718;2023-03-01T12:56:24;3.40;;;0.75;;
74233;SDS011;62591;55.764;37.718;2023-03-01T12:58:59;4.28;;;0.80;;
74233;SDS011;62591;55.764;37.718;2023-03-01T13:01:36;5.00;;;1.45;;
74233;SDS011;62591;55.764;37.718;2023-03-01T13:04:26;3.63;;;0.93;;
74233;SDS011;62591;55.764;37.718;2023-03-01T13:07:11;2.47;;;0.98;;
74233;SDS011;62591;55.764;37.718;2023-03-01T13:09:49;4.70;;;0.98;;
74233;SDS011;62591;55.764;37.718;2023-03-01T13:12:43;4.85;;;1.27;;
74233;SDS011;62591;55.764;37.718;2023-03-01T13:15:28;2.67;;;0.90;;
74233;SDS011;62591;55.764;37.718;2023-03-01T13:18:01;2.20;;;0.85;;
74233;SDS011;62591;55.764;37.718;2023-03-01T13:20:33;2.63;;;0.65;;
74233;SDS011;62591;55.764;37.718;2023-03-01T13:23:21;1.77;;;0.70;;
74233;SDS011;62591;55.764;37.718;2023-03-01T13:26:00;4.18;;;0.88;;
74233;SDS011;62591;55.764;37.718;2023-03-01T13:28:53;1.75;;;0.70;;
74233;SDS011;62591;55.764;37.718;2023-03-01T13:34:49;2.30;;;0.75;;
74233;SDS011;62591;55.764;37.718;2023-03-01T13:37:31;3.60;;;0.93;;
74233;SDS011;62591;55.764;37.718;2023-03-01T13:40:03;1.35;;;0.63;;
74233;SDS011;62591;55.764;37.718;2023-03-01T13:42:54;3.40;;;0.68;;
74233;SDS011;62591;55.764;37.718;2023-03-01T13:45:33;3.88;;;0.90;;
74233;SDS011;62591;55.764;37.718;2023-03-01T13:48:08;2.00;;;0.70;;
74233;SDS011;62591;55.764;37.718;2023-03-01T13:50:48;4.57;;;1.00;;
74233;SDS011;62591;55.764;37.718;2023-03-01T13:53:19;1.80;;;0.80;;
74233;SDS011;62591;55.764;37.718;2023-03-01T13:55:51;3.63;;;0.80;;
74233;SDS011;62591;55.764;37.718;2023-03-01T13:58:26;1.42;;;0.68;;
74233;SDS011;62591;55.764;37.718;2023-03-01T14:00:58;4.60;;;1.10;;
74233;SDS011;62591;55.764;37.718;2023-03-01T14:03:29;3.92;;;1.30;;
74233;SDS011;62591;55.764;37.718;2023-03-01T14:06:05;6.32;;;1.15;;
74233;SDS011;62591;55.764;37.718;2023-03-01T14:08:46;2.33;;;0.80;;
74233;SDS011;62591;55.764;37.718;2023-03-01T14:11:22;2.30;;;1.00;;
74233;SDS011;62591;55.764;37.718;2023-03-01T14:14:17;2.70;;;1.05;;
74233;SDS011;62591;55.764;37.718;2023-03-01T14:17:03;3.80;;;1.10;;
74233;SDS011;62591;55.764;37.718;2023-03-01T14:19:54;3.95;;;0.90;;
74233;SDS011;62591;55.764;37.718;2023-03-01T14:22:26;2.67;;;0.95;;
74233;SDS011;62591;55.764;37.718;2023-03-01T14:24:58;4.18;;;1.55;;
74233;SDS011;62591;55.764;37.718;2023-03-01T14:27:30;3.45;;;1.35;;
74233;SDS011;62591;55.764;37.718;2023-03-01T14:32:39;3.40;;;0.82;;
74233;SDS011;62591;55.764;37.718;2023-03-01T14:35:18;3.90;;;0.70;;
74233;SDS011;62591;55.764;37.718;2023-03-01T14:37:50;3.03;;;0.70;;
74233;SDS011;62591;55.764;37.718;2023-03-01T14:40:21;2.83;;;1.10;;
74233;SDS011;62591;55.764;37.718;2023-03-01T14:42:52;3.65;;;1.60;;
74233;SDS011;62591;55.764;37.718;2023-03-01T14:45:23;3.85;;;1.27;;
74233;SDS011;62591;55.764;37.718;2023-03-01T14:47:54;2.03;;;1.00;;
74233;SDS011;62591;55.764;37.718;2023-03-01T14:50:24;4.43;;;1.10;;
74233;SDS011;62591;55.764;37.718;2023-03-01T14:52:58;3.40;;;1.00;;
74233;SDS011;62591;55.764;37.718;2023-03-01T14:55:29;4.57;;;1.17;;
74233;SDS011;62591;55.764;37.718;2023-03-01T14:58:03;5.38;;;1.20;;
74233;SDS011;62591;55.764;37.718;2023-03-01T15:00:34;4.53;;;1.33;;
74233;SDS011;62591;55.764;37.718;2023-03-01T15:03:06;4.97;;;1.35;;
74233;SDS011;62591;55.764;37.718;2023-03-01T15:05:40;6.13;;;1.25;;
74233;SDS011;62591;55.764;37.718;2023-03-01T15:08:16;2.75;;;0.80;;
74233;SDS011;62591;55.764;37.718;2023-03-01T15:10:57;2.63;;;1.20;;
74233;SDS011;62591;55.764;37.718;2023-03-01T15:16:02;1.35;;;0.57;;
74233;SDS011;62591;55.764;37.718;2023-03-01T15:18:36;3.92;;;1.10;;
74233;SDS011;62591;55.764;37.718;2023-03-01T15:21:06;3.05;;;0.98;;
74233;SDS011;62591;55.764;37.718;2023-03-01T15:23:39;3.35;;;1.00;;
74233;SDS011;62591;55.764;37.718;2023-03-01T15:26:17;4.78;;;1.13;;
74233;SDS011;62591;55.764;37.718;2023-03-01T15:28:52;2.33;;;1.20;;
74233;SDS011;62591;55.764;37.718;2023-03-01T15:31:25;2.50;;;1.00;;
74233;SDS011;62591;55.764;37.718;2023-03-01T15:34:09;5.10;;;1.83;;
74233;SDS011;62591;55.764;37.718;2023-03-01T15:36:49;5.53;;;1.33;;
74233;SDS011;62591;55.764;37.718;2023-03-01T15:39:29;2.92;;;1.10;;
74233;SDS011;62591;55.764;37.718;2023-03-01T15:42:05;3.88;;;1.15;;